Terminal Aerodrome Forecast
Issued by NWS Sioux Falls, SD

Home | Current Version | Previous Version | Graphics & Text | Print | Product List | Glossary Off
Versions: 1 2 3 4 5 6 7 8 9 10 11 12 13 14

284
FTUS43 KFSD 171720
TAFFSD
TAF
KFSD 171720Z 1718/1818 10014G22KT P6SM SCT250
     FM180200 07012KT P6SM SCT110
     FM180900 04011KT 5SM -SN OVC010
     FM181100 01010KT 1SM -SN OVC010
     FM181700 35013G21KT 3SM -SN OVC010=

USA.gov is the U.S. government's official web portal to all federal, state and local government web resources and services.